Terminal Aerodrome Forecast
Issued by NWS Green Bay, WI

Home | Current Version | Previous Version | Graphics & Text | Print | Product List | Glossary On
Versions: 1 2 3 4 5 6 7 8 9 10 11 12 13 14 15 16
000
FTUS43 KGRB 262328
TAFGRB
TAF
KGRB 262328Z 2700/2724 16006KT P6SM SCT080 BKN200
     FM270600 21003KT 5SM BR SCT003 SCT080
      TEMPO 2708/2712 2SM BR BKN003
     FM271300 22004KT P6SM SCT015 SCT100
     FM271500 22008KT P6SM SCT030 SCT100
     FM272200 21007KT P6SM VCSH SCT040 BKN080=

USA.gov is the U.S. government's official web portal to all federal, state and local government web resources and services.